Terminal Aerodrome Forecast
Issued by NWS Sioux Falls, SD

Home | Current Version | Previous Version | Text Only | Print | Product List | Glossary Off
Versions: 1 2 3 4 5 6 7 8 9 10 11 12 13 14 15 16 17

000
FTUS43 KFSD 260829 AAB
TAFFSD
TAF AMD
KFSD 260829Z 2608/2706 05006KT 4SM -SN OVC005
      TEMPO 2609/2611 6SM -SN OVC007
     FM261100 01015G22KT 4SM -SN OVC008
     FM261300 36020G30KT 6SM -SN OVC010
     FM261500 35022G30KT P6SM OVC015
     FM262000 34017G25KT P6SM SCT015
     FM270000 34009KT P6SM BKN030=

USA.gov is the U.S. government's official web portal to all federal, state and local government web resources and services.